sensor_id;sensor_type;location;lat;lon;timestamp;pressure;altitude;pressure_sealevel;temperature;humidity
77770;BME280;66961;51.482;9.160;2023-07-24T00:01:02;98436.53;;;16.62;93.25
77770;BME280;66961;51.482;9.160;2023-07-24T00:03:27;98435.16;;;16.59;93.48
77770;BME280;66961;51.482;9.160;2023-07-24T00:05:52;98423.88;;;16.57;93.49
77770;BME280;66961;51.482;9.160;2023-07-24T00:08:18;98420.84;;;16.53;93.62
77770;BME280;66961;51.482;9.160;2023-07-24T00:10:43;98429.44;;;16.55;93.42
77770;BME280;66961;51.482;9.160;2023-07-24T00:13:08;98426.78;;;16.55;92.95
77770;BME280;66961;51.482;9.160;2023-07-24T00:15:34;98418.16;;;16.53;93.62
77770;BME280;66961;51.482;9.160;2023-07-24T00:17:59;98415.72;;;16.52;93.34
77770;BME280;66961;51.482;9.160;2023-07-24T00:20:24;98417.81;;;16.50;92.95
77770;BME280;66961;51.482;9.160;2023-07-24T00:22:50;98410.97;;;16.42;93.55
77770;BME280;66961;51.482;9.160;2023-07-24T00:25:15;98403.97;;;16.41;93.46
77770;BME280;66961;51.482;9.160;2023-07-24T00:27:40;98402.81;;;16.37;93.44
77770;BME280;66961;51.482;9.160;2023-07-24T00:30:06;98408.97;;;16.38;93.77
77770;BME280;66961;51.482;9.160;2023-07-24T00:32:32;98415.63;;;16.35;93.61
77770;BME280;66961;51.482;9.160;2023-07-24T00:34:57;98417.34;;;16.30;93.78
77770;BME280;66961;51.482;9.160;2023-07-24T00:37:22;98417.34;;;16.30;93.66
77770;BME280;66961;51.482;9.160;2023-07-24T00:39:48;98405.38;;;16.20;93.80
77770;BME280;66961;51.482;9.160;2023-07-24T00:42:13;98417.00;;;16.26;93.92
77770;BME280;66961;51.482;9.160;2023-07-24T00:44:38;98408.41;;;16.24;94.04
77770;BME280;66961;51.482;9.160;2023-07-24T00:47:04;98410.50;;;16.22;93.68
77770;BME280;66961;51.482;9.160;2023-07-24T00:49:30;98411.31;;;16.22;93.68
77770;BME280;66961;51.482;9.160;2023-07-24T00:51:55;98410.03;;;16.25;93.87
77770;BME280;66961;51.482;9.160;2023-07-24T00:54:21;98404.91;;;16.23;93.83
77770;BME280;66961;51.482;9.160;2023-07-24T00:56:47;98419.78;;;16.31;93.82
77770;BME280;66961;51.482;9.160;2023-07-24T00:59:14;98412.00;;;16.30;93.73
77770;BME280;66961;51.482;9.160;2023-07-24T01:01:41;98407.13;;;16.27;93.81
77770;BME280;66961;51.482;9.160;2023-07-24T01:04:06;98413.75;;;16.24;94.02
77770;BME280;66961;51.482;9.160;2023-07-24T01:06:32;98418.97;;;16.19;94.19
77770;BME280;66961;51.482;9.160;2023-07-24T01:08:57;98418.03;;;16.13;94.14
77770;BME280;66961;51.482;9.160;2023-07-24T01:11:32;98411.06;;;16.12;94.15
77770;BME280;66961;51.482;9.160;2023-07-24T01:14:22;98418.84;;;16.14;94.60
77770;BME280;66961;51.482;9.160;2023-07-24T01:16:48;98421.75;;;16.12;94.25
77770;BME280;66961;51.482;9.160;2023-07-24T01:19:20;98400.28;;;16.07;94.54
77770;BME280;66961;51.482;9.160;2023-07-24T01:22:01;98405.03;;;16.05;94.75
77770;BME280;66961;51.482;9.160;2023-07-24T01:24:36;98403.84;;;16.13;94.20
77770;BME280;66961;51.482;9.160;2023-07-24T01:27:03;98409.47;;;16.11;94.50
77770;BME280;66961;51.482;9.160;2023-07-24T01:29:28;98407.03;;;16.10;94.00
77770;BME280;66961;51.482;9.160;2023-07-24T01:31:54;98403.41;;;16.04;94.26
77770;BME280;66961;51.482;9.160;2023-07-24T01:34:19;98400.16;;;16.02;94.01
77770;BME280;66961;51.482;9.160;2023-07-24T01:36:44;98399.81;;;16.10;94.43
77770;BME280;66961;51.482;9.160;2023-07-24T01:39:10;98402.50;;;16.10;94.59
77770;BME280;66961;51.482;9.160;2023-07-24T01:41:36;98402.00;;;16.13;94.57
77770;BME280;66961;51.482;9.160;2023-07-24T01:44:01;98399.91;;;16.15;94.56
77770;BME280;66961;51.482;9.160;2023-07-24T01:46:26;98381.78;;;16.17;94.10
77770;BME280;66961;51.482;9.160;2023-07-24T01:48:53;98380.50;;;16.20;94.23
77770;BME280;66961;51.482;9.160;2023-07-24T01:51:18;98371.91;;;16.18;94.33
77770;BME280;66961;51.482;9.160;2023-07-24T01:53:43;98371.09;;;16.17;94.40
77770;BME280;66961;51.482;9.160;2023-07-24T01:56:09;98378.06;;;16.18;94.49
77770;BME280;66961;51.482;9.160;2023-07-24T01:58:34;98385.03;;;16.19;94.79
77770;BME280;66961;51.482;9.160;2023-07-24T02:00:59;98376.44;;;16.17;94.27
77770;BME280;66961;51.482;9.160;2023-07-24T02:03:24;98368.41;;;16.17;94.18
77770;BME280;66961;51.482;9.160;2023-07-24T02:05:50;98372.25;;;16.21;93.63
77770;BME280;66961;51.482;9.160;2023-07-24T02:08:15;98376.19;;;16.31;93.57
77770;BME280;66961;51.482;9.160;2023-07-24T02:10:41;98386.66;;;16.32;93.56
77770;BME280;66961;51.482;9.160;2023-07-24T02:13:06;98388.88;;;16.35;93.13
77770;BME280;66961;51.482;9.160;2023-07-24T02:15:31;98374.81;;;16.40;93.05
77770;BME280;66961;51.482;9.160;2023-07-24T02:17:56;98380.50;;;16.43;92.69
77770;BME280;66961;51.482;9.160;2023-07-24T02:20:22;98376.44;;;16.41;92.77
77770;BME280;66961;51.482;9.160;2023-07-24T02:22:47;98367.47;;;16.35;93.31
77770;BME280;66961;51.482;9.160;2023-07-24T02:25:12;98360.16;;;16.31;93.46
77770;BME280;66961;51.482;9.160;2023-07-24T02:27:37;98354.13;;;16.23;93.47
77770;BME280;66961;51.482;9.160;2023-07-24T02:30:03;98350.16;;;16.14;93.87
77770;BME280;66961;51.482;9.160;2023-07-24T02:32:28;98351.13;;;16.08;94.21
77770;BME280;66961;51.482;9.160;2023-07-24T02:34:54;98354.13;;;16.00;94.58
77770;BME280;66961;51.482;9.160;2023-07-24T02:37:19;98351.44;;;15.88;94.29
77770;BME280;66961;51.482;9.160;2023-07-24T02:39:45;98351.91;;;15.85;94.95
77770;BME280;66961;51.482;9.160;2023-07-24T02:42:10;98354.69;;;15.79;95.41
77770;BME280;66961;51.482;9.160;2023-07-24T02:44:36;98357.22;;;15.74;95.62
77770;BME280;66961;51.482;9.160;2023-07-24T02:47:01;98357.91;;;15.69;95.37
77770;BME280;66961;51.482;9.160;2023-07-24T02:49:27;98357.69;;;15.71;95.18
77770;BME280;66961;51.482;9.160;2023-07-24T02:51:53;98367.34;;;15.72;94.66
77770;BME280;66961;51.482;9.160;2023-07-24T02:54:18;98379.16;;;15.64;94.31
77770;BME280;66961;51.482;9.160;2023-07-24T02:56:43;98384.50;;;15.64;94.65
77770;BME280;66961;51.482;9.160;2023-07-24T02:59:08;98383.09;;;15.62;94.62
77770;BME280;66961;51.482;9.160;2023-07-24T03:01:34;98378.56;;;15.62;95.01
77770;BME280;66961;51.482;9.160;2023-07-24T03:03:59;98370.56;;;15.62;95.15
77770;BME280;66961;51.482;9.160;2023-07-24T03:06:25;98374.28;;;15.61;95.82
77770;BME280;66961;51.482;9.160;2023-07-24T03:08:51;98365.72;;;15.59;95.75
77770;BME280;66961;51.482;9.160;2023-07-24T03:11:16;98355.59;;;15.61;96.27
77770;BME280;66961;51.482;9.160;2023-07-24T03:13:41;98356.41;;;15.62;96.05
77770;BME280;66961;51.482;9.160;2023-07-24T03:16:07;98365.81;;;15.64;95.71
77770;BME280;66961;51.482;9.160;2023-07-24T03:18:32;98366.03;;;15.63;95.62
77770;BME280;66961;51.482;9.160;2023-07-24T03:21:00;98359.56;;;15.59;95.59
77770;BME280;66961;51.482;9.160;2023-07-24T03:23:25;98364.91;;;15.59;95.82
77770;BME280;66961;51.482;9.160;2023-07-24T03:25:51;98349.44;;;15.61;95.36
77770;BME280;66961;51.482;9.160;2023-07-24T03:28:16;98348.97;;;15.64;95.42
77770;BME280;66961;51.482;9.160;2023-07-24T03:30:41;98346.53;;;15.62;95.74
77770;BME280;66961;51.482;9.160;2023-07-24T03:33:06;98342.50;;;15.60;95.76
77770;BME280;66961;51.482;9.160;2023-07-24T03:35:32;98346.53;;;15.62;95.54
77770;BME280;66961;51.482;9.160;2023-07-24T03:37:57;98328.66;;;15.63;95.84
77770;BME280;66961;51.482;9.160;2023-07-24T03:40:22;98321.66;;;15.62;95.86
77770;BME280;66961;51.482;9.160;2023-07-24T03:42:48;98324.34;;;15.62;95.79
77770;BME280;66961;51.482;9.160;2023-07-24T03:45:13;98315.78;;;15.60;96.12
77770;BME280;66961;51.482;9.160;2023-07-24T03:47:38;98317.25;;;15.55;96.14
77770;BME280;66961;51.482;9.160;2023-07-24T03:50:04;98318.91;;;15.57;96.46
77770;BME280;66961;51.482;9.160;2023-07-24T03:52:29;98306.38;;;15.57;96.46
77770;BME280;66961;51.482;9.160;2023-07-24T03:54:54;98303.78;;;15.62;96.30
77770;BME280;66961;51.482;9.160;2023-07-24T03:57:20;98302.53;;;15.65;95.77
77770;BME280;66961;51.482;9.160;2023-07-24T03:59:45;98296.84;;;15.73;95.73
77770;BME280;66961;51.482;9.160;2023-07-24T04:02:10;98294.41;;;15.83;95.43
77770;BME280;66961;51.482;9.160;2023-07-24T04:04:36;98302.88;;;15.92;95.18
77770;BME280;66961;51.482;9.160;2023-07-24T04:07:01;98288.47;;;15.93;94.78
77770;BME280;66961;51.482;9.160;2023-07-24T04:09:27;98287.91;;;16.02;94.71
77770;BME280;66961;51.482;9.160;2023-07-24T04:11:52;98278.72;;;16.10;94.94
77770;BME280;66961;51.482;9.160;2023-07-24T04:14:17;98271.81;;;16.14;94.63
77770;BME280;66961;51.482;9.160;2023-07-24T04:16:43;98264.25;;;16.22;94.30
77770;BME280;66961;51.482;9.160;2023-07-24T04:19:08;98278.31;;;16.30;95.01
77770;BME280;66961;51.482;9.160;2023-07-24T04:21:33;98273.78;;;16.30;94.67
77770;BME280;66961;51.482;9.160;2023-07-24T04:23:59;98279.22;;;16.35;94.78
77770;BME280;66961;51.482;9.160;2023-07-24T04:26:24;98272.47;;;16.44;93.99
77770;BME280;66961;51.482;9.160;2023-07-24T04:28:49;98275.25;;;16.49;93.58
77770;BME280;66961;51.482;9.160;2023-07-24T04:31:15;98270.47;;;16.51;93.14
77770;BME280;66961;51.482;9.160;2023-07-24T04:33:40;98269.19;;;16.54;93.27
77770;BME280;66961;51.482;9.160;2023-07-24T04:36:05;98274.06;;;16.57;92.21
77770;BME280;66961;51.482;9.160;2023-07-24T04:38:31;98264.53;;;16.61;92.22
77770;BME280;66961;51.482;9.160;2023-07-24T04:40:56;98263.72;;;16.61;92.18
77770;BME280;66961;51.482;9.160;2023-07-24T04:43:21;98259.41;;;16.60;91.69
77770;BME280;66961;51.482;9.160;2023-07-24T04:45:47;98271.22;;;16.64;91.61
77770;BME280;66961;51.482;9.160;2023-07-24T04:48:12;98267.28;;;16.66;91.43
77770;BME280;66961;51.482;9.160;2023-07-24T04:50:37;98264.47;;;16.73;91.25
77770;BME280;66961;51.482;9.160;2023-07-24T04:53:02;98253.78;;;16.73;90.98
77770;BME280;66961;51.482;9.160;2023-07-24T04:55:28;98246.91;;;16.77;90.63
77770;BME280;66961;51.482;9.160;2023-07-24T04:57:53;98242.13;;;16.79;90.37
77770;BME280;66961;51.482;9.160;2023-07-24T05:00:18;98245.72;;;16.84;90.30
77770;BME280;66961;51.482;9.160;2023-07-24T05:02:44;98247.34;;;16.85;89.71
77770;BME280;66961;51.482;9.160;2023-07-24T05:05:09;98248.56;;;16.95;89.52
77770;BME280;66961;51.482;9.160;2023-07-24T05:07:34;98243.31;;;17.00;88.63
77770;BME280;66961;51.482;9.160;2023-07-24T05:10:00;98230.25;;;17.03;88.66
77770;BME280;66961;51.482;9.160;2023-07-24T05:12:25;98227.09;;;17.06;88.66
77770;BME280;66961;51.482;9.160;2023-07-24T05:14:51;98229.28;;;17.09;88.65
77770;BME280;66961;51.482;9.160;2023-07-24T05:17:16;98238.94;;;17.10;88.79
77770;BME280;66961;51.482;9.160;2023-07-24T05:19:41;98244.88;;;17.12;88.89
77770;BME280;66961;51.482;9.160;2023-07-24T05:22:07;98239.56;;;17.17;88.80
77770;BME280;66961;51.482;9.160;2023-07-24T05:24:32;98240.72;;;17.21;88.42
77770;BME280;66961;51.482;9.160;2023-07-24T05:26:57;98234.56;;;17.21;88.65
77770;BME280;66961;51.482;9.160;2023-07-24T05:29:23;98236.38;;;17.15;88.54
77770;BME280;66961;51.482;9.160;2023-07-24T05:31:48;98233.75;;;17.20;88.60
77770;BME280;66961;51.482;9.160;2023-07-24T05:34:13;98242.09;;;17.24;88.06
77770;BME280;66961;51.482;9.160;2023-07-24T05:36:40;98239.50;;;17.29;87.63
77770;BME280;66961;51.482;9.160;2023-07-24T05:39:06;98231.56;;;17.34;86.73
77770;BME280;66961;51.482;9.160;2023-07-24T05:41:31;98236.75;;;17.41;86.82
77770;BME280;66961;51.482;9.160;2023-07-24T05:43:56;98234.31;;;17.39;85.65
77770;BME280;66961;51.482;9.160;2023-07-24T05:46:21;98222.06;;;17.43;86.41
77770;BME280;66961;51.482;9.160;2023-07-24T05:48:47;98218.56;;;17.43;86.37
77770;BME280;66961;51.482;9.160;2023-07-24T05:51:12;98227.41;;;17.43;86.08
77770;BME280;66961;51.482;9.160;2023-07-24T05:53:37;98222.47;;;17.52;85.08
77770;BME280;66961;51.482;9.160;2023-07-24T05:56:03;98214.50;;;17.57;85.29
77770;BME280;66961;51.482;9.160;2023-07-24T05:58:28;98211.44;;;17.65;85.23
77770;BME280;66961;51.482;9.160;2023-07-24T06:00:54;98207.25;;;17.74;84.01
77770;BME280;66961;51.482;9.160;2023-07-24T06:03:19;98219.38;;;17.77;84.00
77770;BME280;66961;51.482;9.160;2023-07-24T06:05:45;98215.44;;;17.84;83.78
77770;BME280;66961;51.482;9.160;2023-07-24T06:08:10;98222.13;;;17.82;84.17
77770;BME280;66961;51.482;9.160;2023-07-24T06:10:35;98220.06;;;17.89;83.02
77770;BME280;66961;51.482;9.160;2023-07-24T06:13:01;98226.50;;;17.88;83.78
77770;BME280;66961;51.482;9.160;2023-07-24T06:15:26;98227.56;;;17.87;84.57
77770;BME280;66961;51.482;9.160;2023-07-24T06:17:51;98234.09;;;17.96;83.31
77770;BME280;66961;51.482;9.160;2023-07-24T06:20:16;98211.19;;;18.05;82.95
77770;BME280;66961;51.482;9.160;2023-07-24T06:22:42;98204.88;;;18.16;82.44
77770;BME280;66961;51.482;9.160;2023-07-24T06:25:07;98208.16;;;18.24;82.99
77770;BME280;66961;51.482;9.160;2023-07-24T06:27:33;98214.28;;;18.41;82.31
77770;BME280;66961;51.482;9.160;2023-07-24T06:29:58;98213.91;;;18.54;82.52
77770;BME280;66961;51.482;9.160;2023-07-24T06:32:23;98208.69;;;18.64;81.68
77770;BME280;66961;51.482;9.160;2023-07-24T06:34:48;98200.69;;;18.69;81.04
77770;BME280;66961;51.482;9.160;2023-07-24T06:37:14;98210.94;;;18.77;81.36
77770;BME280;66961;51.482;9.160;2023-07-24T06:39:39;98203.22;;;18.86;80.64
77770;BME280;66961;51.482;9.160;2023-07-24T06:42:04;98205.59;;;19.09;79.14
77770;BME280;66961;51.482;9.160;2023-07-24T06:44:30;98203.56;;;19.22;79.03
77770;BME280;66961;51.482;9.160;2023-07-24T06:46:55;98203.88;;;19.30;77.50
77770;BME280;66961;51.482;9.160;2023-07-24T06:49:20;98200.34;;;19.25;77.66
77770;BME280;66961;51.482;9.160;2023-07-24T06:51:45;98194.06;;;19.46;75.80
77770;BME280;66961;51.482;9.160;2023-07-24T06:54:11;98192.84;;;19.59;75.94
77770;BME280;66961;51.482;9.160;2023-07-24T06:56:36;98187.53;;;19.69;76.25
77770;BME280;66961;51.482;9.160;2023-07-24T06:59:01;98187.03;;;19.82;74.06
77770;BME280;66961;51.482;9.160;2023-07-24T07:01:27;98183.34;;;19.98;72.44
77770;BME280;66961;51.482;9.160;2023-07-24T07:03:52;98185.06;;;20.14;71.94
77770;BME280;66961;51.482;9.160;2023-07-24T07:06:17;98193.94;;;20.15;71.37
77770;BME280;66961;51.482;9.160;2023-07-24T07:08:42;98192.88;;;20.31;69.29
77770;BME280;66961;51.482;9.160;2023-07-24T07:11:08;98196.19;;;20.38;69.40
77770;BME280;66961;51.482;9.160;2023-07-24T07:13:33;98188.94;;;20.49;68.83
77770;BME280;66961;51.482;9.160;2023-07-24T07:15:58;98186.28;;;20.59;68.78
77770;BME280;66961;51.482;9.160;2023-07-24T07:18:24;98193.56;;;20.64;67.65
77770;BME280;66961;51.482;9.160;2023-07-24T07:20:51;98187.38;;;20.68;66.32
77770;BME280;66961;51.482;9.160;2023-07-24T07:23:17;98187.41;;;20.73;66.83
77770;BME280;66961;51.482;9.160;2023-07-24T07:25:43;98189.81;;;20.80;67.83
77770;BME280;66961;51.482;9.160;2023-07-24T07:28:08;98186.84;;;20.92;65.75
77770;BME280;66961;51.482;9.160;2023-07-24T07:30:34;98199.81;;;21.15;66.44
77770;BME280;66961;51.482;9.160;2023-07-24T07:32:59;98202.25;;;21.11;64.46
77770;BME280;66961;51.482;9.160;2023-07-24T07:35:24;98183.91;;;21.19;64.56
77770;BME280;66961;51.482;9.160;2023-07-24T07:37:50;98194.69;;;21.39;64.38
77770;BME280;66961;51.482;9.160;2023-07-24T07:40:15;98189.03;;;21.51;63.57
77770;BME280;66961;51.482;9.160;2023-07-24T07:42:40;98179.34;;;21.44;63.58
77770;BME280;66961;51.482;9.160;2023-07-24T07:45:06;98172.59;;;21.52;62.69
77770;BME280;66961;51.482;9.160;2023-07-24T07:47:31;98169.84;;;21.77;61.67
77770;BME280;66961;51.482;9.160;2023-07-24T07:49:57;98180.53;;;21.98;60.40
77770;BME280;66961;51.482;9.160;2023-07-24T07:52:22;98168.41;;;22.00;60.74
77770;BME280;66961;51.482;9.160;2023-07-24T07:54:48;98170.22;;;22.25;60.59
77770;BME280;66961;51.482;9.160;2023-07-24T07:57:14;98184.25;;;22.27;58.30
77770;BME280;66961;51.482;9.160;2023-07-24T07:59:39;98173.44;;;22.32;57.68
77770;BME280;66961;51.482;9.160;2023-07-24T08:02:05;98190.53;;;22.07;56.01
77770;BME280;66961;51.482;9.160;2023-07-24T08:04:31;98203.69;;;22.29;56.22
77770;BME280;66961;51.482;9.160;2023-07-24T08:06:56;98190.88;;;22.50;56.11
77770;BME280;66961;51.482;9.160;2023-07-24T08:09:21;98177.38;;;22.94;56.03
77770;BME280;66961;51.482;9.160;2023-07-24T08:11:47;98196.22;;;23.04;54.56
77770;BME280;66961;51.482;9.160;2023-07-24T08:14:12;98192.16;;;23.07;54.83
77770;BME280;66961;51.482;9.160;2023-07-24T08:16:38;98197.09;;;23.63;54.41
77770;BME280;66961;51.482;9.160;2023-07-24T08:19:03;98199.38;;;23.45;53.05
77770;BME280;66961;51.482;9.160;2023-07-24T08:21:29;98190.50;;;23.40;52.61
77770;BME280;66961;51.482;9.160;2023-07-24T08:23:54;98189.53;;;23.31;53.33
77770;BME280;66961;51.482;9.160;2023-07-24T08:26:19;98183.41;;;23.20;53.11
77770;BME280;66961;51.482;9.160;2023-07-24T08:28:45;98185.06;;;23.16;52.90
77770;BME280;66961;51.482;9.160;2023-07-24T08:31:10;98182.84;;;23.23;53.91
77770;BME280;66961;51.482;9.160;2023-07-24T08:33:35;98199.63;;;23.20;52.96
77770;BME280;66961;51.482;9.160;2023-07-24T08:36:07;98198.72;;;23.30;52.91
77770;BME280;66961;51.482;9.160;2023-07-24T08:38:34;98194.59;;;23.37;53.17
77770;BME280;66961;51.482;9.160;2023-07-24T08:41:10;98197.25;;;23.42;53.72
77770;BME280;66961;51.482;9.160;2023-07-24T08:43:38;98212.25;;;23.30;52.45
77770;BME280;66961;51.482;9.160;2023-07-24T08:46:04;98193.44;;;23.43;53.02
77770;BME280;66961;51.482;9.160;2023-07-24T08:48:32;98198.78;;;23.54;53.54
77770;BME280;66961;51.482;9.160;2023-07-24T08:50:59;98192.13;;;23.41;52.64
77770;BME280;66961;51.482;9.160;2023-07-24T08:53:25;98199.38;;;23.45;52.92
77770;BME280;66961;51.482;9.160;2023-07-24T08:55:51;98193.16;;;23.45;52.46
77770;BME280;66961;51.482;9.160;2023-07-24T08:58:17;98190.28;;;23.36;53.33
77770;BME280;66961;51.482;9.160;2023-07-24T09:00:43;98184.41;;;23.29;52.43
77770;BME280;66961;51.482;9.160;2023-07-24T09:03:08;98186.00;;;23.30;52.48
77770;BME280;66961;51.482;9.160;2023-07-24T09:05:33;98182.88;;;23.18;53.55
77770;BME280;66961;51.482;9.160;2023-07-24T09:07:59;98175.56;;;23.19;53.70
77770;BME280;66961;51.482;9.160;2023-07-24T09:10:27;98156.50;;;23.63;53.55
77770;BME280;66961;51.482;9.160;2023-07-24T09:12:52;98172.16;;;23.66;51.81
77770;BME280;66961;51.482;9.160;2023-07-24T09:15:18;98163.41;;;23.98;51.32
77770;BME280;66961;51.482;9.160;2023-07-24T09:17:50;98153.09;;;24.24;50.59
77770;BME280;66961;51.482;9.160;2023-07-24T09:20:16;98164.03;;;24.37;50.55
77770;BME280;66961;51.482;9.160;2023-07-24T09:22:53;98158.69;;;24.70;50.20
77770;BME280;66961;51.482;9.160;2023-07-24T09:25:30;98155.25;;;24.27;49.67
77770;BME280;66961;51.482;9.160;2023-07-24T09:27:55;98161.97;;;24.48;49.73
77770;BME280;66961;51.482;9.160;2023-07-24T09:30:20;98152.97;;;24.90;48.69
77770;BME280;66961;51.482;9.160;2023-07-24T09:32:54;98151.63;;;25.06;48.25
77770;BME280;66961;51.482;9.160;2023-07-24T09:35:20;98155.56;;;25.47;47.76
77770;BME280;66961;51.482;9.160;2023-07-24T09:37:46;98154.81;;;25.27;46.61
77770;BME280;66961;51.482;9.160;2023-07-24T09:40:14;98143.84;;;25.19;48.14
77770;BME280;66961;51.482;9.160;2023-07-24T09:42:40;98142.22;;;24.66;49.01
77770;BME280;66961;51.482;9.160;2023-07-24T09:45:06;98133.56;;;24.83;47.59
77770;BME280;66961;51.482;9.160;2023-07-24T09:47:31;98136.13;;;24.93;47.42
77770;BME280;66961;51.482;9.160;2023-07-24T09:49:59;98139.94;;;24.73;46.47
77770;BME280;66961;51.482;9.160;2023-07-24T09:52:27;98137.31;;;24.87;45.78
77770;BME280;66961;51.482;9.160;2023-07-24T09:55:09;98143.09;;;24.81;45.98
77770;BME280;66961;51.482;9.160;2023-07-24T09:57:35;98136.13;;;24.93;45.89
77770;BME280;66961;51.482;9.160;2023-07-24T10:00:01;98146.31;;;24.64;46.19
77770;BME280;66961;51.482;9.160;2023-07-24T10:02:28;98127.63;;;25.00;46.70
77770;BME280;66961;51.482;9.160;2023-07-24T10:04:55;98123.16;;;24.90;45.86
77770;BME280;66961;51.482;9.160;2023-07-24T10:07:20;98127.91;;;24.98;45.97
77770;BME280;66961;51.482;9.160;2023-07-24T10:09:46;98119.06;;;25.25;45.27
77770;BME280;66961;51.482;9.160;2023-07-24T10:12:11;98123.81;;;25.33;44.42
77770;BME280;66961;51.482;9.160;2023-07-24T10:14:37;98122.50;;;25.45;45.02
77770;BME280;66961;51.482;9.160;2023-07-24T10:17:03;98130.44;;;25.41;44.76
77770;BME280;66961;51.482;9.160;2023-07-24T10:19:43;98126.50;;;25.33;44.58
77770;BME280;66961;51.482;9.160;2023-07-24T10:22:19;98124.31;;;25.35;44.31
77770;BME280;66961;51.482;9.160;2023-07-24T10:24:46;98116.78;;;25.00;45.63
77770;BME280;66961;51.482;9.160;2023-07-24T10:27:12;98116.78;;;24.81;46.12
77770;BME280;66961;51.482;9.160;2023-07-24T10:29:37;98125.16;;;24.66;45.96
77770;BME280;66961;51.482;9.160;2023-07-24T10:32:03;98115.72;;;24.45;46.50
77770;BME280;66961;51.482;9.160;2023-07-24T10:34:38;98114.81;;;24.87;45.31
77770;BME280;66961;51.482;9.160;2023-07-24T10:37:07;98115.25;;;24.75;45.42
77770;BME280;66961;51.482;9.160;2023-07-24T10:39:40;98126.56;;;24.63;46.08
77770;BME280;66961;51.482;9.160;2023-07-24T10:42:09;98119.22;;;24.45;46.86
77770;BME280;66961;51.482;9.160;2023-07-24T10:44:35;98124.66;;;24.45;47.38
77770;BME280;66961;51.482;9.160;2023-07-24T10:47:01;98125.88;;;24.53;46.07
77770;BME280;66961;51.482;9.160;2023-07-24T10:49:26;98119.16;;;24.31;47.07
77770;BME280;66961;51.482;9.160;2023-07-24T10:51:58;98117.25;;;24.51;46.52
77770;BME280;66961;51.482;9.160;2023-07-24T10:54:24;98119.38;;;24.72;46.20
77770;BME280;66961;51.482;9.160;2023-07-24T10:56:49;98121.56;;;24.89;45.12
77770;BME280;66961;51.482;9.160;2023-07-24T10:59:15;98117.06;;;25.31;44.50
77770;BME280;66961;51.482;9.160;2023-07-24T11:01:40;98103.69;;;25.48;44.16
77770;BME280;66961;51.482;9.160;2023-07-24T11:04:06;98116.38;;;25.53;43.69
77770;BME280;66961;51.482;9.160;2023-07-24T11:06:32;98112.81;;;25.85;43.00
77770;BME280;66961;51.482;9.160;2023-07-24T11:08:58;98105.16;;;25.87;42.00
77770;BME280;66961;51.482;9.160;2023-07-24T11:11:28;98098.31;;;25.76;42.61
77770;BME280;66961;51.482;9.160;2023-07-24T11:13:54;98103.16;;;25.79;43.20
77770;BME280;66961;51.482;9.160;2023-07-24T11:16:19;98102.00;;;26.21;42.56
77770;BME280;66961;51.482;9.160;2023-07-24T11:18:46;98093.41;;;25.78;42.49
77770;BME280;66961;51.482;9.160;2023-07-24T11:21:12;98101.53;;;25.91;42.48
77770;BME280;66961;51.482;9.160;2023-07-24T11:23:37;98087.56;;;25.70;43.51
77770;BME280;66961;51.482;9.160;2023-07-24T11:26:04;98097.22;;;25.77;42.71
77770;BME280;66961;51.482;9.160;2023-07-24T11:28:39;98084.44;;;25.91;42.77
77770;BME280;66961;51.482;9.160;2023-07-24T11:31:04;98077.03;;;25.69;42.93
77770;BME280;66961;51.482;9.160;2023-07-24T11:33:30;98084.53;;;25.99;41.87
77770;BME280;66961;51.482;9.160;2023-07-24T11:35:55;98080.34;;;26.29;40.38
77770;BME280;66961;51.482;9.160;2023-07-24T11:38:21;98087.09;;;26.18;41.57
77770;BME280;66961;51.482;9.160;2023-07-24T11:40:46;98082.63;;;25.45;42.76
77770;BME280;66961;51.482;9.160;2023-07-24T11:43:20;98066.25;;;24.90;42.90
77770;BME280;66961;51.482;9.160;2023-07-24T11:45:46;98072.34;;;24.82;43.90
77770;BME280;66961;51.482;9.160;2023-07-24T11:48:12;98058.28;;;25.26;43.32
77770;BME280;66961;51.482;9.160;2023-07-24T11:50:45;98047.94;;;25.56;42.17
77770;BME280;66961;51.482;9.160;2023-07-24T11:53:23;98050.75;;;25.23;43.28
77770;BME280;66961;51.482;9.160;2023-07-24T11:55:51;98047.75;;;25.38;42.95
77770;BME280;66961;51.482;9.160;2023-07-24T11:58:17;98044.81;;;25.07;43.05
77770;BME280;66961;51.482;9.160;2023-07-24T12:00:42;98040.88;;;24.67;43.47
77770;BME280;66961;51.482;9.160;2023-07-24T12:03:08;98022.53;;;24.46;44.33
77770;BME280;66961;51.482;9.160;2023-07-24T12:05:40;98027.69;;;24.28;44.78
77770;BME280;66961;51.482;9.160;2023-07-24T12:08:06;98027.00;;;24.18;45.04
77770;BME280;66961;51.482;9.160;2023-07-24T12:10:31;98028.09;;;24.17;44.69
77770;BME280;66961;51.482;9.160;2023-07-24T12:12:58;98007.53;;;24.16;44.34
77770;BME280;66961;51.482;9.160;2023-07-24T12:15:24;98000.88;;;24.46;44.51
77770;BME280;66961;51.482;9.160;2023-07-24T12:17:49;97990.78;;;25.80;41.99
77770;BME280;66961;51.482;9.160;2023-07-24T12:20:14;97984.88;;;26.89;39.44
77770;BME280;66961;51.482;9.160;2023-07-24T12:22:40;97989.16;;;27.61;38.72
77770;BME280;66961;51.482;9.160;2023-07-24T12:25:06;97977.69;;;28.42;36.52
77770;BME280;66961;51.482;9.160;2023-07-24T12:27:31;97979.91;;;28.57;35.97
77770;BME280;66961;51.482;9.160;2023-07-24T12:29:57;97971.81;;;28.95;34.11
77770;BME280;66961;51.482;9.160;2023-07-24T12:32:23;97970.97;;;28.22;35.85
77770;BME280;66961;51.482;9.160;2023-07-24T12:34:49;97976.31;;;27.04;36.88
77770;BME280;66961;51.482;9.160;2023-07-24T12:37:15;97972.78;;;26.73;37.53
77770;BME280;66961;51.482;9.160;2023-07-24T12:39:40;97971.91;;;26.33;38.77
77770;BME280;66961;51.482;9.160;2023-07-24T12:42:05;97972.66;;;26.47;38.71
77770;BME280;66961;51.482;9.160;2023-07-24T12:44:31;97974.44;;;26.83;37.58
77770;BME280;66961;51.482;9.160;2023-07-24T12:46:56;97982.22;;;26.98;36.32
77770;BME280;66961;51.482;9.160;2023-07-24T12:49:21;97972.94;;;27.39;36.31
77770;BME280;66961;51.482;9.160;2023-07-24T12:51:47;97969.13;;;27.00;36.35
77770;BME280;66961;51.482;9.160;2023-07-24T12:54:12;97959.69;;;26.75;36.85